createdAt,value
2023-03-03T00:00:48.647Z,5.10
2023-03-03T00:01:50.654Z,9.07
2023-03-03T00:02:52.671Z,9.05
2023-03-03T00:03:55.613Z,4.38
2023-03-03T00:05:03.794Z,3.85
2023-03-03T00:06:19.341Z,5.88
2023-03-03T00:07:29.525Z,5.68
2023-03-03T00:08:32.709Z,8.88
2023-03-03T00:09:40.788Z,2.42
2023-03-03T00:10:42.915Z,7.38
2023-03-03T00:11:58.198Z,7.35
2023-03-03T00:13:00.643Z,4.40
2023-03-03T00:14:03.030Z,9.27
2023-03-03T00:15:22.079Z,3.53
2023-03-03T00:16:26.050Z,3.22
2023-03-03T00:17:30.699Z,7.63
2023-03-03T00:18:47.931Z,7.22
2023-03-03T00:19:53.623Z,6.88
2023-03-03T00:21:05.433Z,4.75
2023-03-03T00:22:18.061Z,7.47
2023-03-03T00:23:44.999Z,4.30
2023-03-03T00:24:52.665Z,3.88
2023-03-03T00:26:01.525Z,5.10
2023-03-03T00:27:28.564Z,5.35
2023-03-03T00:28:48.792Z,5.22
2023-03-03T00:29:59.047Z,4.47
2023-03-03T00:31:09.593Z,7.03
2023-03-03T00:32:24.494Z,3.95
2023-03-03T00:33:42.730Z,2.80
2023-03-03T00:34:56.605Z,5.63
2023-03-03T00:36:16.845Z,3.90
2023-03-03T00:37:32.174Z,4.88
2023-03-03T00:38:37.010Z,4.40
2023-03-03T00:39:39.707Z,7.15
2023-03-03T00:40:42.087Z,5.75
2023-03-03T00:41:44.145Z,6.50
2023-03-03T00:42:50.832Z,6.82
2023-03-03T00:43:53.792Z,10.43
2023-03-03T00:45:00.528Z,6.60
2023-03-03T00:46:02.770Z,2.30
2023-03-03T00:47:31.011Z,4.38
2023-03-03T00:48:42.616Z,6.15
2023-03-03T00:49:50.322Z,6.28
2023-03-03T00:50:55.204Z,3.67
2023-03-03T00:51:57.267Z,2.83
2023-03-03T00:53:15.382Z,5.85
2023-03-03T00:54:28.438Z,3.13
2023-03-03T00:55:38.406Z,5.38
2023-03-03T00:56:53.950Z,4.45
2023-03-03T00:57:57.331Z,3.75
2023-03-03T00:58:59.712Z,3.40
2023-03-03T01:00:04.723Z,1.23
2023-03-03T01:01:09.704Z,4.07
2023-03-03T01:02:15.138Z,3.25
2023-03-03T01:03:25.267Z,2.95
2023-03-03T01:04:30.014Z,4.05
2023-03-03T01:05:33.315Z,5.68
2023-03-03T01:06:35.406Z,3.20
2023-03-03T01:07:37.494Z,4.40
2023-03-03T01:08:42.090Z,1.88
2023-03-03T01:09:48.297Z,2.53
2023-03-03T01:10:55.689Z,3.35
2023-03-03T01:12:00.341Z,4.28
2023-03-03T01:13:11.733Z,4.10
2023-03-03T01:14:16.933Z,5.57
2023-03-03T01:15:22.244Z,4.50
2023-03-03T01:16:29.898Z,3.13
2023-03-03T01:17:36.949Z,3.95
2023-03-03T01:18:42.206Z,5.55
2023-03-03T01:19:44.340Z,4.88
2023-03-03T01:20:46.442Z,4.05
2023-03-03T01:21:48.745Z,3.55
2023-03-03T01:22:51.982Z,4.20
2023-03-03T01:23:54.393Z,5.45
2023-03-03T01:24:57.978Z,3.42
2023-03-03T01:26:01.023Z,4.15
2023-03-03T01:27:03.175Z,5.75
2023-03-03T01:28:05.731Z,7.57
2023-03-03T01:29:08.041Z,3.25
2023-03-03T01:30:10.822Z,4.65
2023-03-03T01:31:13.030Z,4.97
2023-03-03T01:32:16.776Z,4.50
2023-03-03T01:33:19.609Z,4.30
2023-03-03T01:34:21.975Z,4.88
2023-03-03T01:35:24.351Z,3.65
2023-03-03T01:36:28.709Z,4.93
2023-03-03T01:37:36.497Z,3.60
2023-03-03T01:38:39.687Z,3.92
2023-03-03T01:39:44.339Z,3.08
2023-03-03T01:40:56.178Z,4.43
2023-03-03T01:41:58.572Z,3.90
2023-03-03T01:43:11.575Z,8.93
2023-03-03T01:44:17.679Z,4.45
2023-03-03T01:45:25.375Z,3.92
2023-03-03T01:46:52.130Z,3.08
2023-03-03T01:48:32.695Z,4.57
2023-03-03T01:49:57.899Z,1.52
2023-03-03T01:51:06.571Z,4.30
2023-03-03T01:52:27.745Z,5.32
2023-03-03T01:53:51.890Z,2.75
2023-03-03T01:55:13.912Z,3.75
2023-03-03T01:56:16.400Z,2.25
2023-03-03T01:57:26.247Z,4.50
2023-03-03T01:58:32.382Z,4.82
2023-03-03T01:59:38.196Z,4.85
2023-03-03T02:00:44.098Z,5.63
2023-03-03T02:01:49.491Z,4.90
2023-03-03T02:02:55.605Z,5.85
2023-03-03T02:04:02.245Z,5.55
2023-03-03T02:05:05.029Z,7.45
2023-03-03T02:06:14.126Z,7.20
2023-03-03T02:07:18.710Z,5.40
2023-03-03T02:08:26.351Z,6.85
2023-03-03T02:09:40.624Z,3.25
2023-03-03T02:10:45.012Z,8.13
2023-03-03T02:11:54.727Z,3.85
2023-03-03T02:13:00.021Z,3.15
2023-03-03T02:14:02.106Z,6.40
2023-03-03T02:15:17.176Z,6.18
2023-03-03T02:16:19.936Z,3.65
2023-03-03T02:17:22.135Z,9.05
2023-03-03T02:18:24.910Z,3.50
2023-03-03T02:19:32.060Z,6.03
2023-03-03T02:20:54.369Z,5.15
2023-03-03T02:21:57.388Z,6.45
2023-03-03T02:23:18.054Z,6.20
2023-03-03T02:24:32.737Z,5.25
2023-03-03T02:25:44.578Z,5.70
2023-03-03T02:26:50.576Z,7.53
2023-03-03T02:27:58.766Z,4.53
2023-03-03T02:29:01.670Z,4.57
2023-03-03T02:30:19.396Z,6.43
2023-03-03T02:32:35.122Z,3.53
2023-03-03T02:33:48.932Z,6.43
2023-03-03T02:34:52.901Z,4.30
2023-03-03T02:36:00.798Z,6.57
2023-03-03T02:37:04.206Z,5.50
2023-03-03T02:38:26.747Z,9.32
2023-03-03T02:39:30.647Z,7.28
2023-03-03T02:40:38.825Z,3.95
2023-03-03T02:42:08.460Z,6.80
2023-03-03T02:43:12.241Z,6.53
2023-03-03T02:44:19.862Z,6.13
2023-03-03T02:45:21.963Z,7.00
2023-03-03T02:46:24.637Z,6.25
2023-03-03T02:47:28.609Z,6.60
2023-03-03T02:48:31.625Z,7.93
2023-03-03T02:49:36.464Z,6.55
2023-03-03T02:50:44.071Z,7.75
2023-03-03T02:51:46.787Z,5.25
2023-03-03T02:52:48.949Z,7.28
2023-03-03T02:53:53.704Z,5.85
2023-03-03T02:54:59.998Z,8.63
2023-03-03T02:56:04.700Z,5.88
2023-03-03T02:57:09.124Z,5.38
2023-03-03T02:58:12.100Z,5.80
2023-03-03T02:59:14.820Z,7.40
2023-03-03T03:00:17.354Z,5.05
2023-03-03T03:01:20.802Z,7.25
2023-03-03T03:02:25.973Z,3.53
2023-03-03T03:03:29.604Z,7.18
2023-03-03T03:04:31.856Z,9.35
2023-03-03T03:05:34.049Z,6.40
2023-03-03T03:06:40.516Z,6.55
2023-03-03T03:07:46.203Z,3.95
2023-03-03T03:08:57.199Z,5.32
2023-03-03T03:09:59.687Z,7.88
2023-03-03T03:11:03.375Z,5.57
2023-03-03T03:12:05.671Z,4.78
2023-03-03T03:13:11.299Z,5.68
2023-03-03T03:14:15.174Z,5.35
2023-03-03T03:15:17.779Z,4.45
2023-03-03T03:16:20.394Z,7.57
2023-03-03T03:17:22.990Z,6.93
2023-03-03T03:18:27.792Z,6.72
2023-03-03T03:19:30.423Z,4.75
2023-03-03T03:20:37.716Z,7.78
2023-03-03T03:21:41.646Z,4.32
2023-03-03T03:22:45.237Z,8.10
2023-03-03T03:23:54.956Z,4.88
2023-03-03T03:24:59.119Z,4.03
2023-03-03T03:26:02.985Z,8.18
2023-03-03T03:27:06.850Z,5.03
2023-03-03T03:28:35.510Z,3.08
2023-03-03T03:29:50.701Z,6.57
2023-03-03T03:31:01.526Z,4.07
2023-03-03T03:32:15.592Z,5.70
2023-03-03T03:33:23.141Z,5.20
2023-03-03T03:34:28.052Z,8.65
2023-03-03T03:35:30.141Z,9.02
2023-03-03T03:36:32.681Z,5.28
2023-03-03T03:37:34.709Z,4.82
2023-03-03T03:38:38.588Z,4.68
2023-03-03T03:39:42.248Z,6.93
2023-03-03T03:40:44.417Z,7.63
2023-03-03T03:41:46.542Z,5.18
2023-03-03T03:42:48.724Z,5.63
2023-03-03T03:43:50.830Z,8.50
2023-03-03T03:44:55.300Z,5.32
2023-03-03T03:45:57.577Z,6.43
2023-03-03T03:47:00.079Z,5.93
2023-03-03T03:48:03.837Z,4.38
2023-03-03T03:49:07.232Z,8.05
2023-03-03T03:50:11.347Z,7.28
2023-03-03T03:51:16.289Z,11.57
2023-03-03T03:52:18.328Z,9.20
2023-03-03T03:53:20.604Z,6.80
2023-03-03T03:54:23.011Z,12.07
2023-03-03T03:55:25.715Z,5.57
2023-03-03T03:56:31.737Z,8.65
2023-03-03T03:57:35.015Z,4.55
2023-03-03T03:58:37.455Z,9.30
2023-03-03T03:59:43.202Z,6.88
2023-03-03T04:00:50.858Z,5.07
2023-03-03T04:01:58.884Z,10.20
2023-03-03T04:03:19.159Z,4.72
2023-03-03T04:04:23.657Z,7.95
2023-03-03T04:05:31.828Z,11.20
2023-03-03T04:06:38.018Z,7.90
2023-03-03T04:07:55.748Z,6.57
2023-03-03T04:09:21.818Z,10.52
2023-03-03T04:10:26.997Z,8.07
2023-03-03T04:11:29.680Z,6.05
2023-03-03T04:12:38.424Z,6.90
2023-03-03T04:13:41.587Z,7.25
2023-03-03T04:14:43.973Z,6.15
2023-03-03T04:15:55.925Z,6.30
2023-03-03T04:16:59.117Z,6.65
2023-03-03T04:18:01.695Z,6.25
2023-03-03T04:19:07.028Z,3.45
2023-03-03T04:20:19.591Z,6.90
2023-03-03T04:21:34.609Z,5.47
2023-03-03T04:22:43.186Z,4.30
2023-03-03T04:23:50.285Z,4.65
2023-03-03T04:24:59.521Z,2.50
2023-03-03T04:26:07.842Z,5.43
2023-03-03T04:27:15.923Z,7.47
2023-03-03T04:28:20.510Z,4.45
2023-03-03T04:29:22.989Z,8.90
2023-03-03T04:30:25.108Z,4.55
2023-03-03T04:31:28.607Z,6.45
2023-03-03T04:32:38.603Z,9.13
2023-03-03T04:33:52.754Z,6.38
2023-03-03T04:35:07.229Z,5.88
2023-03-03T04:36:10.554Z,7.55
2023-03-03T04:37:14.717Z,7.00
2023-03-03T04:38:23.496Z,6.20
2023-03-03T04:39:29.153Z,5.85
2023-03-03T04:40:34.595Z,7.38
2023-03-03T04:41:37.183Z,7.88
2023-03-03T04:42:39.568Z,8.63
2023-03-03T04:43:44.723Z,6.68
2023-03-03T04:44:52.712Z,6.82
2023-03-03T04:45:54.898Z,7.93
2023-03-03T04:46:57.023Z,6.60
2023-03-03T04:47:59.236Z,7.03
2023-03-03T04:49:01.414Z,5.13
2023-03-03T04:50:04.110Z,5.45
2023-03-03T04:51:06.605Z,7.70
2023-03-03T04:52:09.173Z,4.28
2023-03-03T04:53:13.969Z,5.43
2023-03-03T04:54:16.042Z,4.35
2023-03-03T04:55:20.276Z,6.20
2023-03-03T04:56:23.196Z,6.55
2023-03-03T04:57:28.169Z,5.18
2023-03-03T04:58:30.305Z,5.97
2023-03-03T04:59:35.462Z,3.80
2023-03-03T05:00:39.904Z,2.13
2023-03-03T05:01:42.283Z,5.70
2023-03-03T05:02:44.480Z,8.15
2023-03-03T05:03:46.980Z,5.65
2023-03-03T05:04:54.555Z,8.75
2023-03-03T05:06:08.387Z,6.38
2023-03-03T05:07:14.697Z,4.22
2023-03-03T05:08:27.085Z,7.43
2023-03-03T05:09:31.214Z,6.95
2023-03-03T05:11:04.597Z,11.48
2023-03-03T05:12:20.231Z,10.93
2023-03-03T05:13:37.480Z,8.07
2023-03-03T05:14:52.367Z,11.00
2023-03-03T05:16:03.494Z,7.65
2023-03-03T05:17:07.982Z,6.10
2023-03-03T05:18:12.583Z,4.25
2023-03-03T05:19:16.818Z,4.65
2023-03-03T05:20:19.540Z,4.03
2023-03-03T05:21:21.910Z,4.97
2023-03-03T05:22:25.017Z,4.10
2023-03-03T05:23:29.524Z,4.03
2023-03-03T05:24:31.891Z,4.50
2023-03-03T05:25:34.019Z,8.35
2023-03-03T05:26:36.562Z,5.05
2023-03-03T05:27:38.645Z,4.03
2023-03-03T05:28:40.671Z,4.18
2023-03-03T05:29:47.201Z,4.80
2023-03-03T05:30:49.444Z,5.25
2023-03-03T05:31:51.610Z,3.85
2023-03-03T05:32:53.635Z,3.45
2023-03-03T05:33:55.775Z,5.78
2023-03-03T05:34:57.890Z,7.40
2023-03-03T05:35:59.999Z,4.40
2023-03-03T05:37:03.777Z,5.43
2023-03-03T05:38:05.867Z,5.68
2023-03-03T05:39:08.242Z,3.58
2023-03-03T05:40:11.483Z,5.03
2023-03-03T05:41:13.687Z,4.72
2023-03-03T05:42:15.955Z,4.15
2023-03-03T05:43:18.742Z,4.88
2023-03-03T05:44:20.844Z,7.30
2023-03-03T05:45:24.471Z,7.20
2023-03-03T05:46:26.586Z,5.50
2023-03-03T05:47:29.286Z,9.43
2023-03-03T05:48:31.307Z,9.40
2023-03-03T05:49:33.486Z,15.02
2023-03-03T05:50:37.578Z,8.57
2023-03-03T05:51:40.026Z,10.00
2023-03-03T05:52:42.084Z,16.92
2023-03-03T05:53:50.723Z,11.63
2023-03-03T05:54:52.775Z,11.98
2023-03-03T05:55:57.889Z,13.15
2023-03-03T05:57:00.101Z,15.50
2023-03-03T05:58:02.449Z,12.65
2023-03-03T05:59:04.440Z,16.55
2023-03-03T06:00:08.553Z,11.30
2023-03-03T06:01:13.539Z,12.73
2023-03-03T06:02:15.961Z,9.23
2023-03-03T06:03:18.147Z,12.10
2023-03-03T06:04:20.200Z,10.88
2023-03-03T06:05:22.243Z,8.15
2023-03-03T06:06:24.438Z,10.15
2023-03-03T06:07:26.886Z,8.77
2023-03-03T06:08:29.618Z,10.35
2023-03-03T06:09:32.883Z,8.85
2023-03-03T06:10:40.244Z,15.80
2023-03-03T06:11:42.204Z,9.57
2023-03-03T06:12:44.281Z,7.55
2023-03-03T06:13:46.273Z,9.55
2023-03-03T06:14:50.888Z,10.15
2023-03-03T06:16:22.642Z,8.02
2023-03-03T06:17:45.380Z,11.75
2023-03-03T06:18:47.470Z,6.40
2023-03-03T06:19:49.468Z,6.07
2023-03-03T06:20:53.393Z,9.93
2023-03-03T06:21:55.557Z,9.45
2023-03-03T06:22:57.533Z,7.80
2023-03-03T06:23:59.475Z,13.10
2023-03-03T06:25:01.519Z,9.05
2023-03-03T06:26:03.516Z,5.00
2023-03-03T06:27:05.520Z,5.25
2023-03-03T06:28:07.524Z,5.78
2023-03-03T06:29:09.540Z,11.00
2023-03-03T06:30:13.012Z,6.90
2023-03-03T06:31:14.996Z,6.13
2023-03-03T06:32:17.102Z,6.28
2023-03-03T06:33:19.210Z,8.23
2023-03-03T06:34:21.301Z,8.32
2023-03-03T06:35:23.339Z,7.13
2023-03-03T06:36:25.704Z,8.90
2023-03-03T06:37:27.725Z,8.40
2023-03-03T06:38:29.836Z,8.97
2023-03-03T06:39:31.917Z,11.30
2023-03-03T06:40:33.942Z,10.13
2023-03-03T06:41:35.860Z,10.73
2023-03-03T06:42:37.792Z,15.35
2023-03-03T06:43:39.856Z,14.15
2023-03-03T06:44:41.920Z,16.00
2023-03-03T06:45:46.361Z,24.52
2023-03-03T06:46:48.422Z,21.08
2023-03-03T06:47:50.372Z,18.60
2023-03-03T06:48:52.416Z,16.42
2023-03-03T06:49:54.368Z,15.03
2023-03-03T06:50:56.315Z,15.65
2023-03-03T06:52:01.746Z,13.23
2023-03-03T06:53:12.586Z,11.20
2023-03-03T06:54:19.900Z,13.93
2023-03-03T06:55:23.968Z,11.90
2023-03-03T06:56:26.458Z,11.95
2023-03-03T06:57:31.235Z,10.23
2023-03-03T06:58:36.199Z,11.15
2023-03-03T06:59:38.249Z,10.90
2023-03-03T07:00:44.247Z,8.23
2023-03-03T07:01:48.636Z,8.60
2023-03-03T07:03:02.016Z,13.25
2023-03-03T07:04:29.117Z,15.75
2023-03-03T07:05:31.181Z,6.20
2023-03-03T07:06:33.103Z,13.82
2023-03-03T07:07:35.008Z,6.65
2023-03-03T07:08:37.850Z,9.80
2023-03-03T07:09:39.781Z,8.02
2023-03-03T07:10:41.873Z,11.63
2023-03-03T07:11:46.253Z,8.82
2023-03-03T07:12:49.069Z,8.80
2023-03-03T07:13:53.106Z,9.10
2023-03-03T07:15:26.778Z,9.05
2023-03-03T07:16:29.046Z,9.02
2023-03-03T07:17:31.718Z,10.60
2023-03-03T07:18:55.227Z,9.18
2023-03-03T07:19:57.391Z,7.88
2023-03-03T07:21:00.153Z,10.00
2023-03-03T07:22:15.761Z,13.07
2023-03-03T07:23:24.925Z,8.23
2023-03-03T07:24:29.534Z,16.13
2023-03-03T07:25:35.451Z,11.35
2023-03-03T07:26:37.630Z,14.45
2023-03-03T07:27:39.703Z,14.20
2023-03-03T07:28:43.888Z,16.17
2023-03-03T07:29:51.661Z,18.17
2023-03-03T07:30:55.464Z,19.63
2023-03-03T07:31:59.434Z,17.42
2023-03-03T07:33:01.648Z,18.48
2023-03-03T07:34:21.809Z,13.20
2023-03-03T07:35:43.058Z,17.02
2023-03-03T07:36:45.263Z,16.52
2023-03-03T07:37:48.532Z,29.45
2023-03-03T07:38:57.499Z,19.63
2023-03-03T07:40:00.805Z,16.67
2023-03-03T07:41:05.595Z,18.45
2023-03-03T07:42:31.785Z,16.88
2023-03-03T07:43:37.224Z,19.08
2023-03-03T07:44:40.332Z,16.65
2023-03-03T07:45:43.933Z,16.17
2023-03-03T07:46:48.305Z,18.10
2023-03-03T07:47:50.276Z,15.90
2023-03-03T07:48:53.473Z,18.80
2023-03-03T07:49:57.819Z,14.32
2023-03-03T07:51:05.508Z,13.45
2023-03-03T07:52:31.581Z,13.90
2023-03-03T07:53:36.597Z,11.27
2023-03-03T07:54:45.870Z,14.82
2023-03-03T07:55:48.267Z,15.10
2023-03-03T07:56:50.330Z,16.27
2023-03-03T07:57:54.830Z,16.50
2023-03-03T07:58:57.729Z,19.77
2023-03-03T08:00:15.083Z,13.57
2023-03-03T08:01:28.408Z,13.20
2023-03-03T08:02:37.225Z,14.07
2023-03-03T08:03:39.186Z,11.65
2023-03-03T08:04:52.546Z,14.65
2023-03-03T08:05:54.725Z,15.55
2023-03-03T08:07:02.268Z,12.93
2023-03-03T08:08:09.922Z,15.32
2023-03-03T08:09:11.891Z,12.57
2023-03-03T08:10:36.809Z,14.55
2023-03-03T08:11:51.676Z,14.32
2023-03-03T08:12:54.012Z,13.43
2023-03-03T08:13:56.645Z,14.77
2023-03-03T08:15:17.797Z,9.23
2023-03-03T08:16:38.610Z,16.10
2023-03-03T08:17:43.031Z,9.43
2023-03-03T08:18:48.123Z,11.18
2023-03-03T08:19:53.064Z,10.52
2023-03-03T08:20:58.745Z,15.18
2023-03-03T08:22:15.775Z,6.32
2023-03-03T08:23:19.399Z,9.00
2023-03-03T08:24:22.055Z,11.90
2023-03-03T08:25:23.996Z,10.83
2023-03-03T08:26:27.019Z,8.95
2023-03-03T08:27:36.713Z,8.00
2023-03-03T08:28:38.869Z,9.93
2023-03-03T08:29:40.817Z,8.27
2023-03-03T08:30:43.761Z,10.40
2023-03-03T08:31:45.743Z,12.02
2023-03-03T08:32:52.804Z,11.25
2023-03-03T08:33:58.858Z,13.43
2023-03-03T08:35:01.132Z,10.95
2023-03-03T08:36:03.177Z,10.18
2023-03-03T08:37:06.169Z,13.57
2023-03-03T08:38:08.971Z,13.40
2023-03-03T08:39:11.002Z,12.40
2023-03-03T08:40:13.018Z,12.00
2023-03-03T08:41:14.971Z,16.80
2023-03-03T08:42:16.829Z,17.50
2023-03-03T08:43:21.631Z,21.30
2023-03-03T08:44:23.565Z,18.48
2023-03-03T08:45:26.815Z,12.55
2023-03-03T08:46:28.886Z,26.85
2023-03-03T08:47:30.817Z,18.13
2023-03-03T08:48:34.426Z,20.50
2023-03-03T08:49:36.351Z,15.00
2023-03-03T08:50:39.175Z,19.92
2023-03-03T08:51:41.245Z,19.83
2023-03-03T08:52:43.267Z,15.73
2023-03-03T08:53:45.146Z,18.13
2023-03-03T08:54:47.013Z,11.43
2023-03-03T08:55:49.447Z,17.95
2023-03-03T08:56:51.877Z,11.35
2023-03-03T08:57:53.795Z,13.45
2023-03-03T08:59:03.399Z,11.97
2023-03-03T09:00:09.073Z,10.90
2023-03-03T09:01:10.991Z,14.93
2023-03-03T09:02:12.923Z,13.32
2023-03-03T09:03:14.845Z,14.48
2023-03-03T09:04:16.758Z,14.13
2023-03-03T09:05:20.871Z,16.52
2023-03-03T09:06:22.787Z,12.85
2023-03-03T09:07:24.732Z,14.13
2023-03-03T09:08:26.782Z,12.43
2023-03-03T09:09:28.729Z,18.98
2023-03-03T09:10:32.141Z,13.00
2023-03-03T09:11:34.429Z,14.20
2023-03-03T09:12:48.347Z,11.75
2023-03-03T09:13:53.313Z,10.63
2023-03-03T09:15:16.792Z,13.80
2023-03-03T09:16:19.043Z,10.43
2023-03-03T09:17:36.238Z,9.85
2023-03-03T09:18:39.402Z,13.77
2023-03-03T09:19:41.331Z,9.23
2023-03-03T09:20:51.041Z,10.57
2023-03-03T09:21:55.126Z,14.35
2023-03-03T09:22:57.057Z,4.45
2023-03-03T09:23:59.961Z,6.28
2023-03-03T09:25:02.378Z,14.38
2023-03-03T09:26:28.152Z,8.80
2023-03-03T09:27:34.369Z,12.35
2023-03-03T09:28:37.615Z,5.25
2023-03-03T09:29:39.488Z,9.55
2023-03-03T09:30:48.877Z,10.77
2023-03-03T09:32:24.369Z,10.73
2023-03-03T09:33:40.043Z,5.20
2023-03-03T09:34:43.211Z,9.25
2023-03-03T09:35:46.175Z,11.52
2023-03-03T09:36:49.686Z,10.70
2023-03-03T09:37:52.928Z,6.57
2023-03-03T09:39:00.156Z,9.98
2023-03-03T09:40:33.801Z,8.93
2023-03-03T09:41:41.502Z,10.15
2023-03-03T09:43:09.606Z,9.75
2023-03-03T09:44:39.524Z,7.53
2023-03-03T09:46:01.842Z,8.35
2023-03-03T09:47:24.476Z,8.73
2023-03-03T09:48:41.117Z,11.02
2023-03-03T09:50:02.657Z,8.07
2023-03-03T09:51:09.040Z,7.47
2023-03-03T09:52:10.931Z,6.50
2023-03-03T09:53:22.140Z,7.65
2023-03-03T09:54:33.018Z,7.43
2023-03-03T09:55:48.035Z,5.80
2023-03-03T09:57:00.297Z,6.13
2023-03-03T09:58:32.196Z,11.80
2023-03-03T09:59:59.755Z,13.45
2023-03-03T10:01:07.587Z,12.68
2023-03-03T10:02:30.646Z,5.68
2023-03-03T10:04:12.081Z,9.15
2023-03-03T10:05:44.731Z,11.02
2023-03-03T10:06:55.195Z,9.98
2023-03-03T10:08:28.880Z,11.55
2023-03-03T10:09:47.504Z,11.93
2023-03-03T10:11:17.184Z,11.98
2023-03-03T10:12:24.930Z,8.55
2023-03-03T10:14:09.482Z,12.35
2023-03-03T10:15:22.187Z,9.20
2023-03-03T10:16:48.372Z,12.52
2023-03-03T10:17:53.065Z,10.10
2023-03-03T10:19:17.101Z,15.85
2023-03-03T10:20:50.669Z,9.60
2023-03-03T10:22:11.507Z,8.95
2023-03-03T10:23:34.519Z,8.63
2023-03-03T10:24:55.751Z,7.85
2023-03-03T10:26:38.411Z,8.75
2023-03-03T10:28:04.372Z,16.15
2023-03-03T10:29:30.878Z,11.23
2023-03-03T10:30:54.722Z,11.05
2023-03-03T10:32:39.199Z,11.43
2023-03-03T10:33:44.342Z,20.67
2023-03-03T10:35:23.326Z,9.73
2023-03-03T10:36:48.552Z,13.13
2023-03-03T10:38:23.298Z,17.67
2023-03-03T10:39:39.791Z,14.40
2023-03-03T10:40:54.890Z,13.70
2023-03-03T10:42:21.230Z,7.65
2023-03-03T10:44:04.110Z,7.60
2023-03-03T10:45:35.604Z,5.95
2023-03-03T10:46:46.399Z,6.45
2023-03-03T10:47:57.194Z,11.10
2023-03-03T10:49:04.667Z,7.38
2023-03-03T10:50:37.568Z,12.10
2023-03-03T10:52:08.725Z,11.07
2023-03-03T10:53:17.044Z,6.60
2023-03-03T10:54:19.031Z,11.30
2023-03-03T10:55:59.839Z,12.52
2023-03-03T10:57:26.505Z,11.20
2023-03-03T10:58:33.518Z,10.50
2023-03-03T10:59:41.452Z,7.88
2023-03-03T11:00:55.317Z,6.60
2023-03-03T11:02:07.047Z,4.68
2023-03-03T11:03:44.565Z,7.07
2023-03-03T11:05:16.430Z,8.02
2023-03-03T11:06:31.186Z,13.43
2023-03-03T11:07:44.613Z,12.30
2023-03-03T11:08:59.780Z,11.18
2023-03-03T11:10:19.915Z,6.30
2023-03-03T11:11:49.167Z,8.85
2023-03-03T11:13:20.347Z,3.78
2023-03-03T11:14:38.952Z,7.68
2023-03-03T11:16:04.460Z,7.72
2023-03-03T11:17:16.570Z,8.73
2023-03-03T11:18:36.970Z,13.75
2023-03-03T11:20:06.924Z,8.40
2023-03-03T11:21:41.733Z,5.88
2023-03-03T11:22:55.141Z,7.13
2023-03-03T11:24:23.094Z,9.25
2023-03-03T11:25:32.801Z,3.13
2023-03-03T11:26:37.526Z,7.50
2023-03-03T11:28:03.889Z,11.88
2023-03-03T11:29:47.359Z,22.98
2023-03-03T11:31:10.318Z,6.13
2023-03-03T11:32:26.105Z,20.45
2023-03-03T11:33:38.546Z,9.70
2023-03-03T11:35:00.293Z,7.88
2023-03-03T11:36:23.712Z,3.83
2023-03-03T11:37:50.169Z,5.47
2023-03-03T11:38:58.126Z,4.90
2023-03-03T11:40:11.017Z,4.50
2023-03-03T11:41:32.436Z,6.55
2023-03-03T11:42:49.522Z,5.32
2023-03-03T11:44:06.813Z,7.65
2023-03-03T11:45:16.039Z,6.53
2023-03-03T11:46:54.313Z,6.38
2023-03-03T11:48:06.637Z,6.85
2023-03-03T11:49:36.380Z,5.28
2023-03-03T11:50:58.365Z,7.20
2023-03-03T11:52:05.572Z,6.18
2023-03-03T11:53:22.762Z,8.95
2023-03-03T11:54:32.634Z,4.55
2023-03-03T11:55:38.169Z,4.70
2023-03-03T11:56:45.276Z,4.30
2023-03-03T11:58:22.457Z,5.72
2023-03-03T11:59:48.681Z,6.47
2023-03-03T12:01:06.309Z,8.25
2023-03-03T12:02:16.806Z,3.97
2023-03-03T12:03:38.105Z,4.68
2023-03-03T12:05:03.888Z,11.02
2023-03-03T12:06:31.773Z,5.40
2023-03-03T12:07:52.754Z,6.28
2023-03-03T12:09:29.854Z,8.57
2023-03-03T12:10:50.755Z,6.35
2023-03-03T12:12:12.713Z,6.07
2023-03-03T12:13:23.711Z,7.93
2023-03-03T12:14:56.906Z,4.63
2023-03-03T12:16:22.733Z,9.25
2023-03-03T12:17:36.675Z,6.97
2023-03-03T12:18:49.709Z,5.57
2023-03-03T12:20:07.377Z,7.03
2023-03-03T12:21:41.084Z,9.45
2023-03-03T12:23:15.998Z,7.80
2023-03-03T12:24:32.579Z,6.13
2023-03-03T12:25:38.440Z,8.15
2023-03-03T12:26:40.355Z,7.10
2023-03-03T12:27:54.300Z,5.88
2023-03-03T12:29:07.594Z,6.45
2023-03-03T12:30:27.368Z,5.00
2023-03-03T12:31:51.440Z,8.10
2023-03-03T12:33:23.848Z,9.40
2023-03-03T12:34:41.344Z,7.68
2023-03-03T12:35:54.886Z,5.78
2023-03-03T12:37:22.399Z,6.75
2023-03-03T12:38:50.154Z,5.00
2023-03-03T12:39:58.350Z,9.70
2023-03-03T12:41:30.810Z,4.03
2023-03-03T12:42:35.130Z,5.68
2023-03-03T12:44:05.134Z,8.05
2023-03-03T12:45:19.329Z,5.90
2023-03-03T12:46:42.434Z,9.32
2023-03-03T12:47:51.984Z,6.38
2023-03-03T12:48:53.905Z,6.03
2023-03-03T12:50:11.138Z,8.30
2023-03-03T12:51:25.616Z,7.15
2023-03-03T12:52:55.023Z,10.63
2023-03-03T12:54:36.844Z,11.40
2023-03-03T12:56:04.099Z,7.45
2023-03-03T12:57:06.083Z,10.73
2023-03-03T12:58:13.927Z,13.30
2023-03-03T12:59:21.650Z,5.70
2023-03-03T13:00:35.262Z,6.07
2023-03-03T13:02:01.582Z,5.30
2023-03-03T13:03:53.260Z,7.85
2023-03-03T13:05:10.662Z,4.68
2023-03-03T13:06:31.266Z,5.80
2023-03-03T13:07:46.214Z,6.43
2023-03-03T13:09:13.409Z,14.82
2023-03-03T13:10:59.489Z,9.23
2023-03-03T13:12:28.458Z,8.02
2023-03-03T13:13:58.100Z,6.80
2023-03-03T13:15:07.842Z,12.82
2023-03-03T13:16:22.265Z,4.20
2023-03-03T13:17:49.458Z,5.32
2023-03-03T13:18:59.892Z,8.48
2023-03-03T13:20:24.942Z,7.18
2023-03-03T13:21:32.762Z,4.82
2023-03-03T13:22:44.384Z,7.30
2023-03-03T13:24:08.031Z,5.03
2023-03-03T13:25:44.539Z,6.38
2023-03-03T13:27:14.698Z,14.60
2023-03-03T13:28:34.150Z,7.70
2023-03-03T13:30:00.891Z,8.65
2023-03-03T13:31:17.198Z,4.95
2023-03-03T13:32:31.062Z,6.30
2023-03-03T13:33:36.310Z,9.32
2023-03-03T13:34:52.101Z,6.65
2023-03-03T13:36:02.192Z,10.23
2023-03-03T13:37:15.824Z,8.98
2023-03-03T13:38:25.794Z,7.28
2023-03-03T13:39:33.713Z,8.40
2023-03-03T13:40:46.963Z,4.90
2023-03-03T13:41:57.522Z,9.40
2023-03-03T13:43:10.869Z,6.65
2023-03-03T13:44:25.890Z,7.93
2023-03-03T13:45:37.753Z,7.32
2023-03-03T13:47:02.942Z,8.07
2023-03-03T13:48:28.833Z,7.38
2023-03-03T13:49:50.177Z,6.75
2023-03-03T13:51:04.338Z,19.48
2023-03-03T13:52:13.602Z,15.00
2023-03-03T13:53:31.176Z,10.45
2023-03-03T13:54:44.861Z,10.43
2023-03-03T13:56:21.765Z,11.85
2023-03-03T13:57:50.395Z,11.90
2023-03-03T13:59:24.626Z,15.00
2023-03-03T14:01:01.098Z,9.15
2023-03-03T14:02:21.283Z,11.02
2023-03-03T14:03:50.500Z,11.20
2023-03-03T14:04:57.894Z,14.93
2023-03-03T14:06:17.105Z,12.00
2023-03-03T14:07:27.557Z,8.10
2023-03-03T14:08:58.513Z,12.75
2023-03-03T14:10:03.611Z,14.30
2023-03-03T14:11:35.246Z,14.02
2023-03-03T14:12:43.994Z,12.35
2023-03-03T14:13:54.904Z,14.57
2023-03-03T14:15:27.857Z,15.73
2023-03-03T14:17:07.617Z,15.50
2023-03-03T14:18:25.555Z,17.83
2023-03-03T14:19:43.577Z,16.27
2023-03-03T14:20:51.930Z,12.55
2023-03-03T14:22:03.284Z,20.25
2023-03-03T14:23:14.900Z,19.80
2023-03-03T14:24:26.794Z,18.55
2023-03-03T14:26:17.913Z,21.23
2023-03-03T14:27:25.274Z,13.95
2023-03-03T14:28:30.379Z,22.48
2023-03-03T14:29:33.688Z,17.38
2023-03-03T14:30:43.399Z,16.08
2023-03-03T14:31:45.847Z,13.57
2023-03-03T14:33:09.432Z,20.55
2023-03-03T14:34:23.667Z,15.98
2023-03-03T14:35:31.160Z,25.80
2023-03-03T14:36:38.552Z,22.67
2023-03-03T14:37:46.386Z,22.30
2023-03-03T14:38:48.990Z,23.55
2023-03-03T14:40:06.958Z,20.65
2023-03-03T14:41:12.168Z,23.90
2023-03-03T14:42:30.701Z,25.35
2023-03-03T14:43:38.795Z,23.92
2023-03-03T14:44:47.030Z,25.75
2023-03-03T14:45:49.739Z,24.17
2023-03-03T14:47:24.213Z,19.88
2023-03-03T14:48:27.725Z,25.05
2023-03-03T14:49:35.154Z,21.08
2023-03-03T14:50:42.495Z,25.20
2023-03-03T14:51:47.428Z,20.20
2023-03-03T14:53:18.809Z,16.63
2023-03-03T14:54:26.491Z,17.13
2023-03-03T14:55:35.875Z,27.58
2023-03-03T14:56:39.700Z,19.27
2023-03-03T14:57:47.215Z,21.00
2023-03-03T14:58:50.282Z,19.75
2023-03-03T15:00:14.877Z,13.55
2023-03-03T15:01:22.102Z,11.15
2023-03-03T15:02:36.430Z,15.05
2023-03-03T15:03:59.777Z,17.88
2023-03-03T15:05:14.789Z,12.65
2023-03-03T15:06:55.548Z,17.40
2023-03-03T15:08:08.804Z,16.27
2023-03-03T15:09:43.079Z,16.30
2023-03-03T15:10:46.311Z,16.70
2023-03-03T15:11:54.682Z,19.55
2023-03-03T15:12:56.664Z,13.85
2023-03-03T15:14:13.998Z,28.58
2023-03-03T15:15:21.062Z,13.20
2023-03-03T15:16:30.346Z,14.40
2023-03-03T15:17:55.193Z,17.95
2023-03-03T15:19:08.775Z,22.15
2023-03-03T15:20:20.000Z,21.05
2023-03-03T15:22:34.533Z,22.05
2023-03-03T15:23:43.640Z,16.02
2023-03-03T15:25:11.461Z,20.92
2023-03-03T15:26:39.295Z,16.58
2023-03-03T15:28:08.294Z,14.80
2023-03-03T15:29:38.514Z,21.77
2023-03-03T15:31:05.853Z,16.58
2023-03-03T15:32:52.043Z,17.90